createdAt,value
2022-08-25T00:01:19.080Z,57.79
2022-08-25T00:03:46.545Z,57.61
2022-08-25T00:06:14.930Z,57.71
2022-08-25T00:08:41.987Z,57.48
2022-08-25T00:11:18.395Z,57.54
2022-08-25T00:13:47.407Z,57.39
2022-08-25T00:16:15.368Z,57.46
2022-08-25T00:18:43.012Z,57.58
2022-08-25T00:21:09.870Z,57.37
2022-08-25T00:23:36.961Z,57.61
2022-08-25T00:26:04.043Z,57.98
2022-08-25T00:28:31.161Z,57.85
2022-08-25T00:30:58.997Z,57.15
2022-08-25T00:33:26.372Z,57.36
2022-08-25T00:35:54.706Z,57.45
2022-08-25T00:38:21.914Z,57.30
2022-08-25T00:41:05.797Z,57.56
2022-08-25T00:43:35.869Z,57.41
2022-08-25T00:46:02.957Z,57.40
2022-08-25T00:48:29.845Z,58.14
2022-08-25T00:50:56.918Z,57.53
2022-08-25T00:53:24.741Z,57.54
2022-08-25T00:55:51.689Z,57.88
2022-08-25T00:58:20.705Z,57.74
2022-08-25T01:00:49.618Z,57.80
2022-08-25T01:03:17.489Z,57.31
2022-08-25T01:05:44.761Z,57.66
2022-08-25T01:08:11.722Z,57.61
2022-08-25T01:10:43.776Z,57.96
2022-08-25T01:13:18.336Z,58.02
2022-08-25T01:15:46.617Z,57.58
2022-08-25T01:18:14.120Z,57.84
2022-08-25T01:20:41.142Z,57.87
2022-08-25T01:23:08.056Z,58.02
2022-08-25T01:25:44.240Z,57.97
2022-08-25T01:28:11.224Z,57.74
2022-08-25T01:30:38.426Z,57.50
2022-08-25T01:33:07.098Z,57.77
2022-08-25T01:35:34.321Z,57.62
2022-08-25T01:38:02.450Z,57.80
2022-08-25T01:40:29.561Z,57.90
2022-08-25T01:43:11.761Z,57.74
2022-08-25T01:45:40.111Z,57.89
2022-08-25T01:48:07.436Z,57.83
2022-08-25T01:50:34.490Z,58.30
2022-08-25T01:53:07.507Z,57.71
2022-08-25T01:55:51.827Z,58.21
2022-08-25T01:58:24.738Z,57.68
2022-08-25T02:00:54.358Z,57.69
2022-08-25T02:03:21.688Z,57.84
2022-08-25T02:05:49.119Z,57.90
2022-08-25T02:08:16.030Z,57.82
2022-08-25T02:10:43.213Z,57.63
2022-08-25T02:13:10.397Z,58.11
2022-08-25T02:15:41.903Z,57.75
2022-08-25T02:18:09.176Z,57.96
2022-08-25T02:20:36.418Z,58.08
2022-08-25T02:23:03.758Z,57.38
2022-08-25T02:25:30.882Z,58.03
2022-08-25T02:27:58.409Z,57.68
2022-08-25T02:30:25.566Z,57.80
2022-08-25T02:32:52.793Z,57.89
2022-08-25T02:35:19.937Z,57.60
2022-08-25T02:37:46.866Z,57.64
2022-08-25T02:40:14.084Z,58.12
2022-08-25T02:42:42.790Z,57.58
2022-08-25T02:45:09.704Z,58.10
2022-08-25T02:47:37.271Z,58.07
2022-08-25T02:50:05.299Z,57.52
2022-08-25T02:52:32.223Z,57.36
2022-08-25T02:54:59.395Z,57.42
2022-08-25T02:57:26.279Z,57.91
2022-08-25T02:59:53.594Z,57.60
2022-08-25T03:02:20.711Z,57.87
2022-08-25T03:04:47.772Z,58.01
2022-08-25T03:07:14.750Z,58.15
2022-08-25T03:09:42.530Z,57.80
2022-08-25T03:12:09.746Z,57.96
2022-08-25T03:14:36.654Z,57.74
2022-08-25T03:17:04.100Z,58.18
2022-08-25T03:19:36.091Z,58.29
2022-08-25T03:22:02.930Z,57.62
2022-08-25T03:24:30.010Z,57.58
2022-08-25T03:26:56.890Z,57.69
2022-08-25T03:29:28.114Z,57.87
2022-08-25T03:31:55.539Z,57.95
2022-08-25T03:34:22.579Z,57.70
2022-08-25T03:36:52.370Z,58.38
2022-08-25T03:39:19.874Z,58.03
2022-08-25T03:41:47.354Z,57.49
2022-08-25T03:44:14.386Z,57.49
2022-08-25T03:46:45.873Z,58.26
2022-08-25T03:49:14.761Z,58.08
2022-08-25T03:51:43.569Z,57.93
2022-08-25T03:54:11.001Z,57.87
2022-08-25T03:56:38.368Z,57.67
2022-08-25T03:59:06.093Z,58.04
2022-08-25T04:01:33.301Z,57.74
2022-08-25T04:04:00.232Z,58.14
2022-08-25T04:06:27.124Z,58.06
2022-08-25T04:08:54.243Z,57.61
2022-08-25T04:11:22.405Z,57.62
2022-08-25T04:13:49.329Z,57.44
2022-08-25T04:16:21.795Z,57.93
2022-08-25T04:18:50.969Z,58.31
2022-08-25T04:21:18.236Z,58.41
2022-08-25T04:23:45.420Z,57.50
2022-08-25T04:26:14.553Z,57.62
2022-08-25T04:28:41.955Z,57.79
2022-08-25T04:31:09.555Z,57.87
2022-08-25T04:33:37.051Z,57.65
2022-08-25T04:36:10.053Z,58.01
2022-08-25T04:38:39.983Z,57.80
2022-08-25T04:41:07.675Z,57.43
2022-08-25T04:43:34.752Z,58.07
2022-08-25T04:46:08.746Z,57.92
2022-08-25T04:48:36.262Z,57.47
2022-08-25T04:51:07.323Z,57.80
2022-08-25T04:53:34.458Z,57.83
2022-08-25T04:56:03.885Z,57.32
2022-08-25T04:58:30.970Z,57.92
2022-08-25T05:01:08.705Z,57.47
2022-08-25T05:03:36.149Z,57.66
2022-08-25T05:06:03.658Z,57.43
2022-08-25T05:08:31.374Z,57.28
2022-08-25T05:10:58.680Z,57.13
2022-08-25T05:13:27.180Z,57.12
2022-08-25T05:15:58.264Z,57.34
2022-08-25T05:18:29.649Z,57.08
2022-08-25T05:20:56.901Z,57.13
2022-08-25T05:23:24.294Z,57.47
2022-08-25T05:25:51.957Z,57.17
2022-08-25T05:28:22.153Z,57.63
2022-08-25T05:30:52.130Z,57.81
2022-08-25T05:33:20.255Z,58.40
2022-08-25T05:35:47.119Z,58.01
2022-08-25T05:38:15.263Z,58.55
2022-08-25T05:40:42.858Z,58.65
2022-08-25T05:43:10.424Z,58.75
2022-08-25T05:45:37.348Z,58.70
2022-08-25T05:48:04.875Z,58.96
2022-08-25T05:50:32.009Z,58.33
2022-08-25T05:52:59.308Z,58.43
2022-08-25T05:55:26.464Z,58.49
2022-08-25T05:57:54.345Z,58.86
2022-08-25T06:00:21.320Z,58.41
2022-08-25T06:02:49.699Z,58.06
2022-08-25T06:05:21.855Z,58.32
2022-08-25T06:07:50.419Z,58.46
2022-08-25T06:10:17.878Z,58.38
2022-08-25T06:12:45.146Z,57.76
2022-08-25T06:15:17.091Z,57.86
2022-08-25T06:17:44.460Z,58.12
2022-08-25T06:20:17.286Z,57.83
2022-08-25T06:22:44.453Z,57.89
2022-08-25T06:25:12.806Z,58.21
2022-08-25T06:27:39.842Z,57.54
2022-08-25T06:30:08.229Z,57.51
2022-08-25T06:32:36.153Z,57.52
2022-08-25T06:35:04.510Z,57.62
2022-08-25T06:37:31.422Z,57.20
2022-08-25T06:39:58.639Z,57.24
2022-08-25T06:42:25.761Z,57.15
2022-08-25T06:44:52.636Z,57.78
2022-08-25T06:47:19.889Z,57.04
2022-08-25T06:49:46.960Z,57.38
2022-08-25T06:52:14.182Z,56.78
2022-08-25T06:54:41.438Z,57.22
2022-08-25T06:57:08.392Z,57.25
2022-08-25T06:59:35.811Z,57.41
2022-08-25T07:02:04.172Z,56.92
2022-08-25T07:04:32.005Z,56.90
2022-08-25T07:06:59.159Z,56.54
2022-08-25T07:09:26.950Z,56.26
2022-08-25T07:11:54.281Z,56.64
2022-08-25T07:14:22.166Z,56.43
2022-08-25T07:16:50.471Z,56.64
2022-08-25T07:19:20.802Z,56.50
2022-08-25T07:21:50.275Z,55.90
2022-08-25T07:24:18.490Z,55.69
2022-08-25T07:26:48.583Z,56.13
2022-08-25T07:29:32.042Z,55.62
2022-08-25T07:32:01.530Z,55.75
2022-08-25T07:34:51.834Z,55.96
2022-08-25T07:37:45.502Z,55.51
2022-08-25T07:40:09.307Z,55.44
2022-08-25T07:42:37.021Z,55.40
2022-08-25T07:45:07.318Z,54.91
2022-08-25T07:47:34.794Z,54.84
2022-08-25T07:50:02.034Z,55.05
2022-08-25T07:52:32.853Z,54.53
2022-08-25T07:55:00.674Z,54.64
2022-08-25T07:57:29.695Z,54.40
2022-08-25T07:59:56.940Z,54.42
2022-08-25T08:02:24.659Z,54.58
2022-08-25T08:04:52.397Z,54.35
2022-08-25T08:07:41.132Z,54.45
2022-08-25T08:10:33.186Z,54.21
2022-08-25T08:12:57.225Z,54.04
2022-08-25T08:15:24.469Z,54.38
2022-08-25T08:17:53.288Z,54.24
2022-08-25T08:20:23.521Z,54.21
2022-08-25T08:22:50.880Z,54.16
2022-08-25T08:25:21.195Z,53.87
2022-08-25T08:27:48.939Z,54.09
2022-08-25T08:30:17.153Z,53.85
2022-08-25T08:33:08.771Z,54.06
2022-08-25T08:35:31.519Z,53.96
2022-08-25T08:37:58.568Z,53.75
2022-08-25T08:40:25.554Z,53.99
2022-08-25T08:42:56.487Z,53.86
2022-08-25T08:45:40.200Z,53.93
2022-08-25T08:48:20.382Z,53.68
2022-08-25T08:50:52.334Z,53.69
2022-08-25T08:53:27.652Z,53.37
2022-08-25T08:56:11.712Z,53.08
2022-08-25T08:58:44.025Z,53.18
2022-08-25T09:01:17.952Z,53.22
2022-08-25T09:03:55.158Z,52.91
2022-08-25T09:06:44.625Z,53.21
2022-08-25T09:09:12.892Z,52.90
2022-08-25T09:11:55.062Z,52.64
2022-08-25T09:14:22.238Z,52.87
2022-08-25T09:17:06.485Z,52.99
2022-08-25T09:19:58.532Z,52.65
2022-08-25T09:22:36.266Z,52.57
2022-08-25T09:25:29.491Z,52.81
2022-08-25T09:28:29.677Z,52.54
2022-08-25T09:31:02.222Z,52.54
2022-08-25T09:33:34.213Z,52.63
2022-08-25T09:36:04.593Z,52.57
2022-08-25T09:38:33.413Z,52.78
2022-08-25T09:41:01.062Z,52.77
2022-08-25T09:43:36.912Z,52.22
2022-08-25T09:46:13.339Z,52.33
2022-08-25T09:48:48.374Z,52.31
2022-08-25T09:51:42.529Z,52.38
2022-08-25T09:54:13.353Z,52.32
2022-08-25T09:56:51.136Z,52.42
2022-08-25T09:59:34.073Z,52.20
2022-08-25T10:02:04.134Z,52.18
2022-08-25T10:04:40.023Z,51.71
2022-08-25T10:07:32.511Z,51.62
2022-08-25T10:10:01.735Z,52.41
2022-08-25T10:12:42.592Z,51.68
2022-08-25T10:15:29.474Z,51.79
2022-08-25T10:18:19.109Z,51.50
2022-08-25T10:21:12.555Z,52.32
2022-08-25T10:23:48.674Z,51.50
2022-08-25T10:26:27.892Z,51.69
2022-08-25T10:29:17.775Z,51.28
2022-08-25T10:31:59.932Z,52.01
2022-08-25T10:34:55.250Z,51.92
2022-08-25T10:37:41.295Z,51.65
2022-08-25T10:40:15.385Z,50.87
2022-08-25T10:43:02.773Z,51.10
2022-08-25T10:45:45.492Z,50.63
2022-08-25T10:48:24.783Z,51.18
2022-08-25T10:51:18.851Z,51.46
2022-08-25T10:54:25.728Z,51.23
2022-08-25T10:57:01.463Z,50.90
2022-08-25T11:00:09.368Z,51.21
2022-08-25T11:03:01.358Z,50.33
2022-08-25T11:05:30.806Z,49.88
2022-08-25T11:08:07.290Z,49.88
2022-08-25T11:10:56.042Z,49.72
2022-08-25T11:13:45.660Z,50.30
2022-08-25T11:16:29.234Z,49.97
2022-08-25T11:18:59.495Z,49.41
2022-08-25T11:21:32.720Z,49.27
2022-08-25T11:24:33.100Z,50.04
2022-08-25T11:27:05.217Z,49.83
2022-08-25T11:29:33.786Z,48.85
2022-08-25T11:32:01.821Z,49.28
2022-08-25T11:34:33.807Z,48.71
2022-08-25T11:37:14.248Z,48.85
2022-08-25T11:40:13.702Z,48.77
2022-08-25T11:42:47.187Z,48.72
2022-08-25T11:45:38.901Z,48.88
2022-08-25T11:48:25.950Z,48.41
2022-08-25T11:51:00.956Z,49.00
2022-08-25T11:53:49.837Z,47.79
2022-08-25T11:57:00.695Z,48.19
2022-08-25T11:59:47.557Z,47.87
2022-08-25T12:03:01.390Z,48.07
2022-08-25T12:05:28.634Z,47.73
2022-08-25T12:08:20.000Z,47.91
2022-08-25T12:11:10.588Z,47.83
2022-08-25T12:13:50.937Z,46.97
2022-08-25T12:16:36.097Z,46.46
2022-08-25T12:19:25.191Z,47.01
2022-08-25T12:21:56.597Z,46.84
2022-08-25T12:24:47.690Z,46.56
2022-08-25T12:27:37.227Z,46.70
2022-08-25T12:30:23.643Z,46.54
2022-08-25T12:33:24.118Z,47.07
2022-08-25T12:36:02.021Z,47.10
2022-08-25T12:38:34.967Z,46.52
2022-08-25T12:41:13.458Z,46.52
2022-08-25T12:43:46.122Z,46.12
2022-08-25T12:46:19.949Z,46.43
2022-08-25T12:49:01.332Z,46.55
2022-08-25T12:51:41.220Z,46.62
2022-08-25T12:54:36.319Z,46.32
2022-08-25T12:57:43.577Z,46.10
2022-08-25T13:00:35.708Z,46.59
2022-08-25T13:03:21.959Z,46.31
2022-08-25T13:06:16.210Z,46.42
2022-08-25T13:08:47.926Z,45.94
2022-08-25T13:11:20.605Z,45.95
2022-08-25T13:14:00.502Z,46.31
2022-08-25T13:16:30.007Z,46.52
2022-08-25T13:18:59.575Z,45.84
2022-08-25T13:21:38.034Z,45.92
2022-08-25T13:24:07.063Z,45.93
2022-08-25T13:26:37.792Z,45.97
2022-08-25T13:29:21.572Z,46.08
2022-08-25T13:32:03.145Z,45.46
2022-08-25T13:34:38.569Z,45.48
2022-08-25T13:37:29.655Z,45.18
2022-08-25T13:40:10.197Z,45.95
2022-08-25T13:42:42.537Z,45.79
2022-08-25T13:45:18.447Z,45.65
2022-08-25T13:47:46.069Z,45.87
2022-08-25T13:50:27.023Z,45.31
2022-08-25T13:52:58.333Z,45.22
2022-08-25T13:55:31.673Z,45.64
2022-08-25T13:58:24.599Z,45.37
2022-08-25T14:01:23.648Z,45.51
2022-08-25T14:04:24.772Z,45.60
2022-08-25T14:07:09.765Z,45.68
2022-08-25T14:09:40.607Z,45.89
2022-08-25T14:12:08.404Z,45.35
2022-08-25T14:14:36.375Z,45.45
2022-08-25T14:17:22.435Z,46.40
2022-08-25T14:19:55.840Z,45.71
2022-08-25T14:22:22.728Z,45.65
2022-08-25T14:24:49.604Z,45.98
2022-08-25T14:27:18.787Z,45.76
2022-08-25T14:29:47.924Z,46.12
2022-08-25T14:32:18.103Z,45.77
2022-08-25T14:34:45.363Z,46.14
2022-08-25T14:37:17.245Z,45.49
2022-08-25T14:39:44.800Z,45.84
2022-08-25T14:42:12.470Z,45.83
2022-08-25T14:44:39.431Z,46.21
2022-08-25T14:47:07.606Z,46.58
2022-08-25T14:49:38.898Z,45.31
2022-08-25T14:52:26.765Z,46.16
2022-08-25T14:54:53.954Z,45.42
2022-08-25T14:57:20.883Z,46.13
2022-08-25T14:59:48.575Z,45.89
2022-08-25T15:02:20.031Z,46.45
2022-08-25T15:04:52.943Z,46.64
2022-08-25T15:07:55.350Z,45.84
2022-08-25T15:10:22.262Z,46.46
2022-08-25T15:12:53.932Z,46.44
2022-08-25T15:15:21.830Z,46.60
2022-08-25T15:17:49.488Z,46.53
2022-08-25T15:20:17.530Z,46.70
2022-08-25T15:22:45.566Z,46.23
2022-08-25T15:25:12.520Z,46.07
2022-08-25T15:27:39.604Z,46.49
2022-08-25T15:30:07.093Z,46.63
2022-08-25T15:32:33.983Z,46.60
2022-08-25T15:35:01.140Z,46.52
2022-08-25T15:37:28.107Z,46.67
2022-08-25T15:39:55.710Z,46.17
2022-08-25T15:42:23.199Z,46.43
2022-08-25T15:44:52.819Z,46.76
2022-08-25T15:47:21.160Z,46.67
2022-08-25T15:49:48.249Z,45.87
2022-08-25T15:52:15.624Z,45.89
2022-08-25T15:54:42.500Z,46.06
2022-08-25T15:57:18.076Z,46.24
2022-08-25T15:59:52.460Z,46.69
2022-08-25T16:02:20.730Z,46.52
2022-08-25T16:04:47.874Z,47.20
2022-08-25T16:07:14.823Z,46.75
2022-08-25T16:09:42.014Z,47.00
2022-08-25T16:12:09.041Z,46.69
2022-08-25T16:14:37.734Z,47.53
2022-08-25T16:17:05.492Z,47.22
2022-08-25T16:19:32.762Z,46.94
2022-08-25T16:21:59.874Z,46.58
2022-08-25T16:24:27.157Z,46.13
2022-08-25T16:26:55.856Z,46.62
2022-08-25T16:29:23.653Z,46.12
2022-08-25T16:31:53.168Z,46.76
2022-08-25T16:34:22.462Z,46.18
2022-08-25T16:36:52.838Z,45.99
2022-08-25T16:39:20.955Z,46.81
2022-08-25T16:41:48.058Z,46.46
2022-08-25T16:44:15.494Z,46.40
2022-08-25T16:46:44.215Z,46.69
2022-08-25T16:49:11.840Z,47.14
2022-08-25T16:51:39.221Z,47.14
2022-08-25T16:54:25.648Z,47.20
2022-08-25T16:56:55.126Z,47.43
2022-08-25T16:59:23.432Z,46.99
2022-08-25T17:01:50.930Z,46.82
2022-08-25T17:04:18.096Z,47.01
2022-08-25T17:06:49.427Z,46.73
2022-08-25T17:09:23.844Z,46.93
2022-08-25T17:11:54.428Z,46.72
2022-08-25T17:14:21.786Z,46.67
2022-08-25T17:16:50.674Z,47.15
2022-08-25T17:19:17.730Z,46.32
2022-08-25T17:21:49.871Z,46.54
2022-08-25T17:24:17.271Z,46.79
2022-08-25T17:26:46.116Z,46.99
2022-08-25T17:29:13.334Z,46.53
2022-08-25T17:31:40.486Z,46.67
2022-08-25T17:34:08.669Z,47.38
2022-08-25T17:36:35.869Z,47.06
2022-08-25T17:39:03.544Z,47.42
2022-08-25T17:41:30.453Z,47.38
2022-08-25T17:43:58.722Z,47.68
2022-08-25T17:46:25.980Z,47.85
2022-08-25T17:48:53.397Z,47.90
2022-08-25T17:51:20.817Z,47.81
2022-08-25T17:53:48.841Z,47.95
2022-08-25T17:56:19.202Z,47.55
2022-08-25T17:58:47.292Z,47.86
2022-08-25T18:01:40.612Z,47.67
2022-08-25T18:04:17.245Z,47.99
2022-08-25T18:06:45.959Z,47.46
2022-08-25T18:09:14.034Z,47.36
2022-08-25T18:11:40.958Z,47.21
2022-08-25T18:14:07.900Z,47.64
2022-08-25T18:16:38.867Z,47.36
2022-08-25T18:19:06.526Z,47.77
2022-08-25T18:21:36.691Z,47.42
2022-08-25T18:24:04.507Z,47.55
2022-08-25T18:26:31.422Z,48.01
2022-08-25T18:28:59.035Z,48.05
2022-08-25T18:31:26.192Z,47.73
2022-08-25T18:33:53.194Z,48.07
2022-08-25T18:36:22.923Z,47.99
2022-08-25T18:39:08.783Z,47.79
2022-08-25T18:41:37.424Z,48.02
2022-08-25T18:44:06.556Z,48.12
2022-08-25T18:46:33.650Z,47.91
2022-08-25T18:49:01.383Z,48.50
2022-08-25T18:51:28.656Z,48.48
2022-08-25T18:54:01.100Z,48.64
2022-08-25T18:56:28.529Z,48.02
2022-08-25T18:58:55.952Z,48.38
2022-08-25T19:01:22.987Z,48.52
2022-08-25T19:03:50.359Z,48.43
2022-08-25T19:06:17.680Z,48.36
2022-08-25T19:08:46.477Z,48.61
2022-08-25T19:11:13.366Z,48.75
2022-08-25T19:13:40.758Z,48.17
2022-08-25T19:16:12.329Z,48.38
2022-08-25T19:18:41.571Z,48.64
2022-08-25T19:21:09.154Z,48.52
2022-08-25T19:23:38.184Z,48.33
2022-08-25T19:26:08.073Z,48.80
2022-08-25T19:28:40.946Z,48.67
2022-08-25T19:31:12.840Z,48.67
2022-08-25T19:33:44.000Z,48.73
2022-08-25T19:36:12.431Z,48.58
2022-08-25T19:38:39.495Z,48.97
2022-08-25T19:41:13.880Z,48.83
2022-08-25T19:43:56.504Z,48.73
2022-08-25T19:46:33.223Z,49.22
2022-08-25T19:49:31.718Z,48.92
2022-08-25T19:51:59.229Z,48.91
2022-08-25T19:54:28.850Z,48.94
2022-08-25T19:56:56.006Z,49.11
2022-08-25T19:59:34.125Z,48.77
2022-08-25T20:02:01.786Z,48.90
2022-08-25T20:04:28.906Z,49.30
2022-08-25T20:06:56.213Z,49.35
2022-08-25T20:09:39.422Z,49.46
2022-08-25T20:12:08.415Z,49.23
2022-08-25T20:14:36.678Z,49.63
2022-08-25T20:17:03.996Z,49.27
2022-08-25T20:19:41.926Z,49.35
2022-08-25T20:22:11.216Z,49.37
2022-08-25T20:24:55.886Z,49.33
2022-08-25T20:27:35.832Z,49.36
2022-08-25T20:30:05.997Z,49.32
2022-08-25T20:32:33.085Z,49.36
2022-08-25T20:35:01.268Z,49.31
2022-08-25T20:37:29.126Z,49.47
2022-08-25T20:39:56.119Z,49.31
2022-08-25T20:42:23.130Z,49.48
2022-08-25T20:44:50.326Z,49.36
2022-08-25T20:47:20.670Z,49.46
2022-08-25T20:49:48.989Z,49.13
2022-08-25T20:52:18.604Z,49.17
2022-08-25T20:54:46.940Z,49.31
2022-08-25T20:57:17.780Z,49.40
2022-08-25T20:59:44.926Z,49.26
2022-08-25T21:02:13.963Z,49.40
2022-08-25T21:04:50.041Z,49.54
2022-08-25T21:07:18.542Z,49.41
2022-08-25T21:09:45.828Z,49.73
2022-08-25T21:12:12.677Z,49.46
2022-08-25T21:14:41.374Z,49.45
2022-08-25T21:17:10.841Z,49.63
2022-08-25T21:19:38.972Z,49.50
2022-08-25T21:22:07.560Z,49.63
2022-08-25T21:24:34.615Z,49.53
2022-08-25T21:27:03.745Z,49.57
2022-08-25T21:29:32.860Z,49.52
2022-08-25T21:31:59.791Z,49.63
2022-08-25T21:34:28.219Z,49.55
2022-08-25T21:36:58.088Z,49.79
2022-08-25T21:39:32.086Z,49.86
2022-08-25T21:42:00.698Z,49.87
2022-08-25T21:44:28.743Z,49.85
2022-08-25T21:46:56.178Z,49.83
2022-08-25T21:49:23.555Z,49.77
2022-08-25T21:52:00.565Z,49.82
2022-08-25T21:54:28.900Z,49.80
2022-08-25T21:57:02.266Z,49.67
2022-08-25T21:59:31.781Z,50.05
2022-08-25T22:02:00.462Z,49.85
2022-08-25T22:04:27.988Z,50.11
2022-08-25T22:06:55.827Z,49.91
2022-08-25T22:09:25.073Z,50.08
2022-08-25T22:11:54.638Z,49.93
2022-08-25T22:14:23.762Z,50.01
2022-08-25T22:16:51.995Z,50.17
2022-08-25T22:19:18.930Z,50.25
2022-08-25T22:21:45.993Z,50.22
2022-08-25T22:24:12.864Z,50.26
2022-08-25T22:26:40.258Z,50.19
2022-08-25T22:29:07.930Z,50.15
2022-08-25T22:31:35.917Z,50.36
2022-08-25T22:34:04.853Z,50.26
2022-08-25T22:36:34.868Z,50.11
2022-08-25T22:39:02.279Z,50.48
2022-08-25T22:41:29.918Z,50.46
2022-08-25T22:43:57.654Z,50.27
2022-08-25T22:46:25.717Z,50.36
2022-08-25T22:48:55.246Z,50.51
2022-08-25T22:51:25.280Z,50.55
2022-08-25T22:53:52.299Z,50.50
2022-08-25T22:56:34.992Z,50.47
2022-08-25T22:59:09.559Z,50.48
2022-08-25T23:01:36.623Z,50.79
2022-08-25T23:04:05.159Z,50.77
2022-08-25T23:06:34.349Z,50.52
2022-08-25T23:09:01.618Z,50.47
2022-08-25T23:11:29.036Z,50.66
2022-08-25T23:13:57.130Z,50.43
2022-08-25T23:16:24.263Z,50.49
2022-08-25T23:18:51.646Z,50.55
2022-08-25T23:21:37.950Z,50.58
2022-08-25T23:24:11.733Z,50.65
2022-08-25T23:26:42.679Z,50.60
2022-08-25T23:29:18.488Z,50.28
2022-08-25T23:31:46.692Z,50.63
2022-08-25T23:34:14.168Z,50.61
2022-08-25T23:36:41.931Z,50.74
2022-08-25T23:39:09.158Z,50.78
2022-08-25T23:41:36.982Z,50.72
2022-08-25T23:44:05.485Z,50.76
2022-08-25T23:46:33.140Z,50.63
2022-08-25T23:49:00.235Z,50.65
2022-08-25T23:51:28.724Z,50.61
2022-08-25T23:53:56.233Z,50.86
2022-08-25T23:56:24.105Z,51.03
2022-08-25T23:58:52.024Z,50.74
